Duluth, MN (55811)

1:09 AM CST on December 10, 2016 (GMT -0600)
Miller Hill Subaru | | Change Station

Elev 1332 ft 46.82 °N, 92.18 °W | Updated 10 minutes ago

Light Snow
Light Snow
5.8 °F
Feels Like -4 °F
N
5.0
Wind Variable Wind from WNW
Gusts 8.0 mph

Today
High -- | Low -- °F
--% Chance of Precip.
Yesterday
High -- | Low -- °F
Precip. -- in
Pressure 30.51 in
Visibility 3.0 miles
Clouds Scattered Clouds 2400 ft
Overcast 3000 ft
Windchill -4 °F
Dew Point 2 °F
Humidity 83%
Rainfall 0.00 in
Snow Depth Not available.
7:43 AM 4:20 PM
Waxing Gibbous, 81% visible
METAR KDLH 100655Z 34005KT 3SM -SN SCT024 OVC030 M15/M18 A3039 RMK AO2 SNB19 SLP331 P0000 T11501178
Pressure 30.51 in
Visibility 3.0 miles
Clouds Scattered Clouds 2400 ft
Overcast 3000 ft
Windchill -4 °F
Dew Point 2 °F
Humidity 83%
Rainfall 0.00 in
Snow Depth Not available.
7:43 AM 4:20 PM
Waxing Gibbous, 81% visible
METAR KDLH 100655Z 34005KT 3SM -SN SCT024 OVC030 M15/M18 A3039 RMK AO2 SNB19 SLP331 P0000 T11501178

10-Day Weather Forecast

Almanac

Astronomy

Dec. 10, 2016 Rise Set
Actual Time
Civil Twilight
Nautical Twilight
Astronomical Twilight
Moon
Length of Visible Light
Length of Day
Tomorrow will be .
, % of the Moon is Illuminated

Today's Extremes

State Highs State Lows

Community

WunderPhotos

Upload Photos

1,956,527 photos uploaded!

WunderBlog® & News

Nearby

Air Quality

  Air Quality AQ Index Pollutant
Not available.

Snow Depth

Station Depth Elevation

Earthquake Activity

City Distance Mag. Time & Date
Minimum magnitude displayed is 2.5.

Coastal Water Temperatures

Place Temperature

Stations

Nearby Weather Stations

Station Location Temp. Windchill Dew Point Humidity Wind Precip. Elev Updated Type
                   

Watches & Warnings

There are currently no watches in effect.